sensor_id;sensor_type;location;lat;lon;timestamp;P1;durP1;ratioP1;P2;durP2;ratioP2
84864;SDS011;75122;41.650;25.368;2024-02-15T00:01:28;3.28;;;1.92;;
84864;SDS011;75122;41.650;25.368;2024-02-15T00:03:54;4.18;;;2.17;;
84864;SDS011;75122;41.650;25.368;2024-02-15T00:06:20;5.68;;;2.00;;
84864;SDS011;75122;41.650;25.368;2024-02-15T00:08:45;3.78;;;2.40;;
84864;SDS011;75122;41.650;25.368;2024-02-15T00:11:10;5.15;;;2.40;;
84864;SDS011;75122;41.650;25.368;2024-02-15T00:13:37;3.88;;;2.38;;
84864;SDS011;75122;41.650;25.368;2024-02-15T00:16:03;6.35;;;2.22;;
84864;SDS011;75122;41.650;25.368;2024-02-15T00:18:28;4.53;;;2.22;;
84864;SDS011;75122;41.650;25.368;2024-02-15T00:20:54;4.05;;;2.22;;
84864;SDS011;75122;41.650;25.368;2024-02-15T00:23:19;5.03;;;2.40;;
84864;SDS011;75122;41.650;25.368;2024-02-15T00:25:45;2.85;;;2.00;;
84864;SDS011;75122;41.650;25.368;2024-02-15T00:28:11;3.35;;;2.20;;
84864;SDS011;75122;41.650;25.368;2024-02-15T00:30:37;2.58;;;1.83;;
84864;SDS011;75122;41.650;25.368;2024-02-15T00:33:03;2.35;;;1.80;;
84864;SDS011;75122;41.650;25.368;2024-02-15T00:35:28;3.03;;;1.80;;
84864;SDS011;75122;41.650;25.368;2024-02-15T00:37:54;2.38;;;1.83;;
84864;SDS011;75122;41.650;25.368;2024-02-15T00:40:19;3.42;;;1.90;;
84864;SDS011;75122;41.650;25.368;2024-02-15T00:42:46;4.13;;;2.67;;
84864;SDS011;75122;41.650;25.368;2024-02-15T00:45:11;4.55;;;2.38;;
84864;SDS011;75122;41.650;25.368;2024-02-15T00:47:37;3.97;;;1.80;;
84864;SDS011;75122;41.650;25.368;2024-02-15T00:50:03;4.38;;;2.42;;
84864;SDS011;75122;41.650;25.368;2024-02-15T00:52:29;4.03;;;2.22;;
84864;SDS011;75122;41.650;25.368;2024-02-15T00:54:55;2.40;;;2.10;;
84864;SDS011;75122;41.650;25.368;2024-02-15T00:57:21;3.58;;;1.45;;
84864;SDS011;75122;41.650;25.368;2024-02-15T00:59:47;5.25;;;2.10;;
84864;SDS011;75122;41.650;25.368;2024-02-15T01:02:12;2.33;;;1.80;;
84864;SDS011;75122;41.650;25.368;2024-02-15T01:04:38;3.70;;;2.28;;
84864;SDS011;75122;41.650;25.368;2024-02-15T01:07:04;2.40;;;1.88;;
84864;SDS011;75122;41.650;25.368;2024-02-15T01:09:29;3.00;;;2.40;;
84864;SDS011;75122;41.650;25.368;2024-02-15T01:11:55;3.40;;;2.50;;
84864;SDS011;75122;41.650;25.368;2024-02-15T01:14:20;4.22;;;2.15;;
84864;SDS011;75122;41.650;25.368;2024-02-15T01:16:46;4.90;;;2.33;;
84864;SDS011;75122;41.650;25.368;2024-02-15T01:19:11;3.38;;;2.17;;
84864;SDS011;75122;41.650;25.368;2024-02-15T01:21:37;5.90;;;2.50;;
84864;SDS011;75122;41.650;25.368;2024-02-15T01:24:02;5.13;;;2.25;;
84864;SDS011;75122;41.650;25.368;2024-02-15T01:26:31;3.42;;;1.90;;
84864;SDS011;75122;41.650;25.368;2024-02-15T01:28:57;4.30;;;2.00;;
84864;SDS011;75122;41.650;25.368;2024-02-15T01:31:22;6.25;;;2.22;;
84864;SDS011;75122;41.650;25.368;2024-02-15T01:33:48;4.20;;;1.85;;
84864;SDS011;75122;41.650;25.368;2024-02-15T01:36:17;2.67;;;1.95;;
84864;SDS011;75122;41.650;25.368;2024-02-15T01:38:43;3.42;;;2.40;;
84864;SDS011;75122;41.650;25.368;2024-02-15T01:41:09;3.60;;;2.40;;
84864;SDS011;75122;41.650;25.368;2024-02-15T01:43:35;6.20;;;2.38;;
84864;SDS011;75122;41.650;25.368;2024-02-15T01:46:01;3.30;;;2.03;;
84864;SDS011;75122;41.650;25.368;2024-02-15T01:48:32;3.92;;;2.10;;
84864;SDS011;75122;41.650;25.368;2024-02-15T01:50:58;3.38;;;1.90;;
84864;SDS011;75122;41.650;25.368;2024-02-15T01:53:23;2.45;;;1.60;;
84864;SDS011;75122;41.650;25.368;2024-02-15T01:55:52;4.38;;;2.22;;
84864;SDS011;75122;41.650;25.368;2024-02-15T01:58:19;3.45;;;2.03;;
84864;SDS011;75122;41.650;25.368;2024-02-15T02:00:45;4.03;;;1.90;;
84864;SDS011;75122;41.650;25.368;2024-02-15T02:03:10;6.45;;;2.00;;
84864;SDS011;75122;41.650;25.368;2024-02-15T02:05:39;4.78;;;2.35;;
84864;SDS011;75122;41.650;25.368;2024-02-15T02:08:06;3.08;;;1.55;;
84864;SDS011;75122;41.650;25.368;2024-02-15T02:10:35;4.85;;;2.40;;
84864;SDS011;75122;41.650;25.368;2024-02-15T02:13:02;3.35;;;2.05;;
84864;SDS011;75122;41.650;25.368;2024-02-15T02:15:27;3.20;;;2.28;;
84864;SDS011;75122;41.650;25.368;2024-02-15T02:17:56;3.85;;;2.55;;
84864;SDS011;75122;41.650;25.368;2024-02-15T02:20:25;2.45;;;1.77;;
84864;SDS011;75122;41.650;25.368;2024-02-15T02:22:52;4.40;;;2.03;;
84864;SDS011;75122;41.650;25.368;2024-02-15T02:25:22;3.42;;;2.47;;
84864;SDS011;75122;41.650;25.368;2024-02-15T02:27:51;4.93;;;2.30;;
84864;SDS011;75122;41.650;25.368;2024-02-15T02:30:17;5.75;;;2.65;;
84864;SDS011;75122;41.650;25.368;2024-02-15T02:32:44;5.65;;;2.35;;
84864;SDS011;75122;41.650;25.368;2024-02-15T02:35:11;7.05;;;2.53;;
84864;SDS011;75122;41.650;25.368;2024-02-15T02:37:41;5.95;;;2.92;;
84864;SDS011;75122;41.650;25.368;2024-02-15T02:40:07;3.97;;;2.40;;
84864;SDS011;75122;41.650;25.368;2024-02-15T02:42:35;3.78;;;2.05;;
84864;SDS011;75122;41.650;25.368;2024-02-15T02:45:01;4.03;;;2.47;;
84864;SDS011;75122;41.650;25.368;2024-02-15T02:47:26;3.85;;;1.95;;
84864;SDS011;75122;41.650;25.368;2024-02-15T02:49:52;2.95;;;1.77;;
84864;SDS011;75122;41.650;25.368;2024-02-15T02:52:17;2.85;;;1.80;;
84864;SDS011;75122;41.650;25.368;2024-02-15T02:54:43;4.25;;;1.75;;
84864;SDS011;75122;41.650;25.368;2024-02-15T02:57:08;4.38;;;1.98;;
84864;SDS011;75122;41.650;25.368;2024-02-15T02:59:34;3.95;;;2.70;;
84864;SDS011;75122;41.650;25.368;2024-02-15T03:02:00;4.07;;;2.28;;
84864;SDS011;75122;41.650;25.368;2024-02-15T03:04:26;2.75;;;1.98;;
84864;SDS011;75122;41.650;25.368;2024-02-15T03:06:51;5.38;;;2.22;;
84864;SDS011;75122;41.650;25.368;2024-02-15T03:09:18;4.57;;;2.40;;
84864;SDS011;75122;41.650;25.368;2024-02-15T03:11:45;4.18;;;2.20;;
84864;SDS011;75122;41.650;25.368;2024-02-15T03:14:11;4.57;;;2.05;;
84864;SDS011;75122;41.650;25.368;2024-02-15T03:16:37;3.13;;;2.17;;
84864;SDS011;75122;41.650;25.368;2024-02-15T03:19:03;4.50;;;2.00;;
84864;SDS011;75122;41.650;25.368;2024-02-15T03:21:29;3.80;;;2.20;;
84864;SDS011;75122;41.650;25.368;2024-02-15T03:23:55;4.90;;;2.70;;
84864;SDS011;75122;41.650;25.368;2024-02-15T03:26:30;2.38;;;1.80;;
84864;SDS011;75122;41.650;25.368;2024-02-15T03:29:03;3.08;;;2.08;;
84864;SDS011;75122;41.650;25.368;2024-02-15T03:31:29;4.68;;;2.20;;
84864;SDS011;75122;41.650;25.368;2024-02-15T03:33:56;4.13;;;2.58;;
84864;SDS011;75122;41.650;25.368;2024-02-15T03:36:24;7.40;;;3.33;;
84864;SDS011;75122;41.650;25.368;2024-02-15T03:38:49;7.13;;;3.63;;
84864;SDS011;75122;41.650;25.368;2024-02-15T03:41:15;5.70;;;3.58;;
84864;SDS011;75122;41.650;25.368;2024-02-15T03:43:40;4.50;;;2.75;;
84864;SDS011;75122;41.650;25.368;2024-02-15T03:46:05;3.45;;;2.20;;
84864;SDS011;75122;41.650;25.368;2024-02-15T03:48:32;5.88;;;2.95;;
84864;SDS011;75122;41.650;25.368;2024-02-15T03:50:57;5.32;;;2.08;;
84864;SDS011;75122;41.650;25.368;2024-02-15T03:53:23;3.65;;;2.05;;
84864;SDS011;75122;41.650;25.368;2024-02-15T03:55:49;4.90;;;2.13;;
84864;SDS011;75122;41.650;25.368;2024-02-15T03:58:18;5.78;;;2.20;;
84864;SDS011;75122;41.650;25.368;2024-02-15T04:00:44;3.00;;;1.92;;
84864;SDS011;75122;41.650;25.368;2024-02-15T04:03:10;2.20;;;1.63;;
84864;SDS011;75122;41.650;25.368;2024-02-15T04:05:35;3.95;;;2.17;;
84864;SDS011;75122;41.650;25.368;2024-02-15T04:08:01;3.55;;;1.92;;
84864;SDS011;75122;41.650;25.368;2024-02-15T04:10:27;4.10;;;2.20;;
84864;SDS011;75122;41.650;25.368;2024-02-15T04:12:52;5.78;;;1.88;;
84864;SDS011;75122;41.650;25.368;2024-02-15T04:15:18;2.92;;;2.05;;
84864;SDS011;75122;41.650;25.368;2024-02-15T04:17:44;2.83;;;2.38;;
84864;SDS011;75122;41.650;25.368;2024-02-15T04:20:09;4.88;;;2.15;;
84864;SDS011;75122;41.650;25.368;2024-02-15T04:22:36;4.55;;;2.33;;
84864;SDS011;75122;41.650;25.368;2024-02-15T04:25:06;2.95;;;1.95;;
84864;SDS011;75122;41.650;25.368;2024-02-15T04:27:34;3.55;;;2.28;;
84864;SDS011;75122;41.650;25.368;2024-02-15T04:30:00;8.77;;;2.53;;
84864;SDS011;75122;41.650;25.368;2024-02-15T04:32:28;6.03;;;2.45;;
84864;SDS011;75122;41.650;25.368;2024-02-15T04:34:54;4.80;;;2.65;;
84864;SDS011;75122;41.650;25.368;2024-02-15T04:37:20;3.58;;;2.55;;
84864;SDS011;75122;41.650;25.368;2024-02-15T04:39:45;4.00;;;2.15;;
84864;SDS011;75122;41.650;25.368;2024-02-15T04:42:12;4.10;;;2.03;;
84864;SDS011;75122;41.650;25.368;2024-02-15T04:44:40;5.45;;;2.20;;
84864;SDS011;75122;41.650;25.368;2024-02-15T04:47:05;3.92;;;2.50;;
84864;SDS011;75122;41.650;25.368;2024-02-15T04:49:34;4.57;;;2.45;;
84864;SDS011;75122;41.650;25.368;2024-02-15T04:52:03;5.25;;;2.90;;
84864;SDS011;75122;41.650;25.368;2024-02-15T04:54:29;4.72;;;2.30;;
84864;SDS011;75122;41.650;25.368;2024-02-15T04:56:56;3.60;;;2.20;;
84864;SDS011;75122;41.650;25.368;2024-02-15T04:59:22;6.93;;;2.60;;
84864;SDS011;75122;41.650;25.368;2024-02-15T05:01:50;5.18;;;2.55;;
84864;SDS011;75122;41.650;25.368;2024-02-15T05:04:16;3.38;;;2.17;;
84864;SDS011;75122;41.650;25.368;2024-02-15T05:06:44;4.03;;;2.10;;
84864;SDS011;75122;41.650;25.368;2024-02-15T05:09:10;3.10;;;2.00;;
84864;SDS011;75122;41.650;25.368;2024-02-15T05:11:39;5.93;;;2.55;;
84864;SDS011;75122;41.650;25.368;2024-02-15T05:14:15;3.00;;;2.05;;
84864;SDS011;75122;41.650;25.368;2024-02-15T05:16:48;5.50;;;2.47;;
84864;SDS011;75122;41.650;25.368;2024-02-15T05:19:14;3.15;;;2.13;;
84864;SDS011;75122;41.650;25.368;2024-02-15T05:21:41;5.45;;;2.47;;
84864;SDS011;75122;41.650;25.368;2024-02-15T05:24:10;4.75;;;2.58;;
84864;SDS011;75122;41.650;25.368;2024-02-15T05:26:36;7.05;;;2.25;;
84864;SDS011;75122;41.650;25.368;2024-02-15T05:29:01;5.55;;;3.33;;
84864;SDS011;75122;41.650;25.368;2024-02-15T05:31:27;5.35;;;4.03;;
84864;SDS011;75122;41.650;25.368;2024-02-15T05:33:53;5.60;;;2.67;;
84864;SDS011;75122;41.650;25.368;2024-02-15T05:36:19;8.32;;;3.20;;
84864;SDS011;75122;41.650;25.368;2024-02-15T05:38:53;6.93;;;2.85;;
84864;SDS011;75122;41.650;25.368;2024-02-15T05:41:20;6.63;;;3.38;;
84864;SDS011;75122;41.650;25.368;2024-02-15T05:43:46;7.72;;;3.85;;
84864;SDS011;75122;41.650;25.368;2024-02-15T05:46:17;9.38;;;3.17;;
84864;SDS011;75122;41.650;25.368;2024-02-15T05:48:42;6.38;;;3.30;;
84864;SDS011;75122;41.650;25.368;2024-02-15T05:51:08;5.18;;;2.97;;
84864;SDS011;75122;41.650;25.368;2024-02-15T05:53:34;6.43;;;3.10;;
84864;SDS011;75122;41.650;25.368;2024-02-15T05:56:01;5.20;;;2.70;;
84864;SDS011;75122;41.650;25.368;2024-02-15T05:58:29;6.07;;;3.05;;
84864;SDS011;75122;41.650;25.368;2024-02-15T06:00:55;12.93;;;3.90;;
84864;SDS011;75122;41.650;25.368;2024-02-15T06:03:26;9.20;;;4.60;;
84864;SDS011;75122;41.650;25.368;2024-02-15T06:05:51;8.18;;;4.38;;
84864;SDS011;75122;41.650;25.368;2024-02-15T06:08:17;10.02;;;5.13;;
84864;SDS011;75122;41.650;25.368;2024-02-15T06:10:43;14.82;;;6.60;;
84864;SDS011;75122;41.650;25.368;2024-02-15T06:13:09;12.38;;;6.53;;
84864;SDS011;75122;41.650;25.368;2024-02-15T06:15:34;9.02;;;4.50;;
84864;SDS011;75122;41.650;25.368;2024-02-15T06:18:01;7.10;;;4.28;;
84864;SDS011;75122;41.650;25.368;2024-02-15T06:20:26;9.13;;;4.78;;
84864;SDS011;75122;41.650;25.368;2024-02-15T06:22:55;9.30;;;5.82;;
84864;SDS011;75122;41.650;25.368;2024-02-15T06:25:20;12.48;;;6.18;;
84864;SDS011;75122;41.650;25.368;2024-02-15T06:27:46;14.50;;;7.22;;
84864;SDS011;75122;41.650;25.368;2024-02-15T06:30:14;10.40;;;5.32;;
84864;SDS011;75122;41.650;25.368;2024-02-15T06:32:58;17.00;;;7.07;;
84864;SDS011;75122;41.650;25.368;2024-02-15T06:35:42;4.97;;;2.97;;
84864;SDS011;75122;41.650;25.368;2024-02-15T06:38:26;6.85;;;2.85;;
84864;SDS011;75122;41.650;25.368;2024-02-15T06:41:10;6.70;;;3.38;;
84864;SDS011;75122;41.650;25.368;2024-02-15T06:43:35;9.07;;;4.30;;
84864;SDS011;75122;41.650;25.368;2024-02-15T06:46:05;5.45;;;3.80;;
84864;SDS011;75122;41.650;25.368;2024-02-15T06:48:31;10.07;;;4.90;;
84864;SDS011;75122;41.650;25.368;2024-02-15T06:50:56;6.13;;;3.97;;
84864;SDS011;75122;41.650;25.368;2024-02-15T06:53:23;5.13;;;3.08;;
84864;SDS011;75122;41.650;25.368;2024-02-15T06:55:49;4.63;;;3.20;;
84864;SDS011;75122;41.650;25.368;2024-02-15T06:58:16;7.80;;;3.75;;
84864;SDS011;75122;41.650;25.368;2024-02-15T07:00:42;7.80;;;4.80;;
84864;SDS011;75122;41.650;25.368;2024-02-15T07:03:08;7.45;;;4.40;;
84864;SDS011;75122;41.650;25.368;2024-02-15T07:05:34;6.88;;;3.55;;
84864;SDS011;75122;41.650;25.368;2024-02-15T07:07:59;7.40;;;3.42;;
84864;SDS011;75122;41.650;25.368;2024-02-15T07:10:25;5.95;;;3.53;;
84864;SDS011;75122;41.650;25.368;2024-02-15T07:12:51;6.97;;;3.72;;
84864;SDS011;75122;41.650;25.368;2024-02-15T07:15:16;5.43;;;3.42;;
84864;SDS011;75122;41.650;25.368;2024-02-15T07:17:42;6.00;;;3.55;;
84864;SDS011;75122;41.650;25.368;2024-02-15T07:20:09;5.47;;;3.33;;
84864;SDS011;75122;41.650;25.368;2024-02-15T07:22:36;5.55;;;3.22;;
84864;SDS011;75122;41.650;25.368;2024-02-15T07:25:03;6.00;;;2.95;;
84864;SDS011;75122;41.650;25.368;2024-02-15T07:27:30;7.28;;;3.75;;
84864;SDS011;75122;41.650;25.368;2024-02-15T07:29:55;5.50;;;3.15;;
84864;SDS011;75122;41.650;25.368;2024-02-15T07:32:21;6.40;;;3.33;;
84864;SDS011;75122;41.650;25.368;2024-02-15T07:34:47;5.25;;;3.05;;
84864;SDS011;75122;41.650;25.368;2024-02-15T07:37:12;5.60;;;2.80;;
84864;SDS011;75122;41.650;25.368;2024-02-15T07:39:40;5.80;;;3.15;;
84864;SDS011;75122;41.650;25.368;2024-02-15T07:42:06;5.90;;;3.33;;
84864;SDS011;75122;41.650;25.368;2024-02-15T07:44:33;7.75;;;4.38;;
84864;SDS011;75122;41.650;25.368;2024-02-15T07:47:01;6.80;;;3.22;;
84864;SDS011;75122;41.650;25.368;2024-02-15T07:49:27;7.28;;;3.58;;
84864;SDS011;75122;41.650;25.368;2024-02-15T07:51:52;6.32;;;3.00;;
84864;SDS011;75122;41.650;25.368;2024-02-15T07:54:18;3.83;;;2.63;;
84864;SDS011;75122;41.650;25.368;2024-02-15T07:56:47;4.03;;;2.65;;
84864;SDS011;75122;41.650;25.368;2024-02-15T07:59:13;6.75;;;3.15;;
84864;SDS011;75122;41.650;25.368;2024-02-15T08:01:41;4.50;;;2.75;;
84864;SDS011;75122;41.650;25.368;2024-02-15T08:04:07;7.72;;;3.78;;
84864;SDS011;75122;41.650;25.368;2024-02-15T08:06:33;5.88;;;3.40;;
84864;SDS011;75122;41.650;25.368;2024-02-15T08:09:01;5.13;;;3.20;;
84864;SDS011;75122;41.650;25.368;2024-02-15T08:11:30;9.82;;;4.78;;
84864;SDS011;75122;41.650;25.368;2024-02-15T08:13:55;11.43;;;4.75;;
84864;SDS011;75122;41.650;25.368;2024-02-15T08:16:24;9.45;;;4.95;;
84864;SDS011;75122;41.650;25.368;2024-02-15T08:18:53;7.82;;;4.20;;
84864;SDS011;75122;41.650;25.368;2024-02-15T08:21:28;10.38;;;4.55;;
84864;SDS011;75122;41.650;25.368;2024-02-15T08:23:57;10.35;;;5.43;;
84864;SDS011;75122;41.650;25.368;2024-02-15T08:26:33;8.75;;;5.80;;
84864;SDS011;75122;41.650;25.368;2024-02-15T08:29:03;8.68;;;5.45;;
84864;SDS011;75122;41.650;25.368;2024-02-15T08:31:28;8.23;;;5.18;;
84864;SDS011;75122;41.650;25.368;2024-02-15T08:33:56;7.63;;;5.07;;
84864;SDS011;75122;41.650;25.368;2024-02-15T08:36:21;7.22;;;4.60;;
84864;SDS011;75122;41.650;25.368;2024-02-15T08:38:47;6.70;;;4.55;;
84864;SDS011;75122;41.650;25.368;2024-02-15T08:41:12;5.97;;;3.97;;
84864;SDS011;75122;41.650;25.368;2024-02-15T08:43:38;10.35;;;4.97;;
84864;SDS011;75122;41.650;25.368;2024-02-15T08:46:05;4.85;;;3.50;;
84864;SDS011;75122;41.650;25.368;2024-02-15T08:48:31;4.70;;;3.22;;
84864;SDS011;75122;41.650;25.368;2024-02-15T08:50:57;4.60;;;3.38;;
84864;SDS011;75122;41.650;25.368;2024-02-15T08:53:23;5.97;;;3.63;;
84864;SDS011;75122;41.650;25.368;2024-02-15T08:55:49;5.97;;;2.83;;
84864;SDS011;75122;41.650;25.368;2024-02-15T08:58:15;5.20;;;2.80;;
84864;SDS011;75122;41.650;25.368;2024-02-15T09:00:40;10.50;;;4.22;;
84864;SDS011;75122;41.650;25.368;2024-02-15T09:03:10;6.75;;;3.67;;
84864;SDS011;75122;41.650;25.368;2024-02-15T09:05:37;5.95;;;3.20;;
84864;SDS011;75122;41.650;25.368;2024-02-15T09:08:03;7.38;;;3.97;;
84864;SDS011;75122;41.650;25.368;2024-02-15T09:10:29;5.93;;;3.30;;
84864;SDS011;75122;41.650;25.368;2024-02-15T09:12:55;6.22;;;3.60;;
84864;SDS011;75122;41.650;25.368;2024-02-15T09:15:21;7.10;;;4.15;;
84864;SDS011;75122;41.650;25.368;2024-02-15T09:17:47;5.30;;;3.05;;
84864;SDS011;75122;41.650;25.368;2024-02-15T09:20:13;5.65;;;3.38;;
84864;SDS011;75122;41.650;25.368;2024-02-15T09:22:40;7.75;;;4.15;;
84864;SDS011;75122;41.650;25.368;2024-02-15T09:25:07;6.07;;;3.60;;
84864;SDS011;75122;41.650;25.368;2024-02-15T09:27:33;9.52;;;4.78;;
84864;SDS011;75122;41.650;25.368;2024-02-15T09:29:59;9.18;;;4.93;;
84864;SDS011;75122;41.650;25.368;2024-02-15T09:32:24;12.05;;;6.45;;
84864;SDS011;75122;41.650;25.368;2024-02-15T09:34:50;9.55;;;4.72;;
84864;SDS011;75122;41.650;25.368;2024-02-15T09:37:15;5.72;;;3.90;;
84864;SDS011;75122;41.650;25.368;2024-02-15T09:39:41;7.88;;;3.67;;
84864;SDS011;75122;41.650;25.368;2024-02-15T09:42:06;4.63;;;3.20;;
84864;SDS011;75122;41.650;25.368;2024-02-15T09:44:31;4.75;;;3.22;;
84864;SDS011;75122;41.650;25.368;2024-02-15T09:47:02;4.95;;;3.17;;
84864;SDS011;75122;41.650;25.368;2024-02-15T09:49:36;6.70;;;4.53;;
84864;SDS011;75122;41.650;25.368;2024-02-15T09:52:03;7.00;;;3.95;;
84864;SDS011;75122;41.650;25.368;2024-02-15T09:54:30;7.20;;;3.85;;
84864;SDS011;75122;41.650;25.368;2024-02-15T09:56:58;11.10;;;4.65;;
84864;SDS011;75122;41.650;25.368;2024-02-15T09:59:26;7.68;;;3.38;;
84864;SDS011;75122;41.650;25.368;2024-02-15T10:01:52;5.35;;;3.28;;
84864;SDS011;75122;41.650;25.368;2024-02-15T10:04:23;6.75;;;3.65;;
84864;SDS011;75122;41.650;25.368;2024-02-15T10:06:50;7.70;;;3.60;;
84864;SDS011;75122;41.650;25.368;2024-02-15T10:11:54;6.55;;;4.00;;
84864;SDS011;75122;41.650;25.368;2024-02-15T10:14:21;7.15;;;3.20;;
84864;SDS011;75122;41.650;25.368;2024-02-15T10:16:47;6.00;;;2.80;;
84864;SDS011;75122;41.650;25.368;2024-02-15T10:19:14;3.72;;;3.10;;
84864;SDS011;75122;41.650;25.368;2024-02-15T10:21:40;5.60;;;3.30;;
84864;SDS011;75122;41.650;25.368;2024-02-15T10:24:06;11.30;;;5.88;;
84864;SDS011;75122;41.650;25.368;2024-02-15T10:26:33;5.95;;;3.30;;
84864;SDS011;75122;41.650;25.368;2024-02-15T10:29:06;8.13;;;4.65;;
84864;SDS011;75122;41.650;25.368;2024-02-15T10:31:34;6.20;;;3.63;;
84864;SDS011;75122;41.650;25.368;2024-02-15T10:34:04;5.00;;;2.38;;
84864;SDS011;75122;41.650;25.368;2024-02-15T10:36:31;4.47;;;2.53;;
84864;SDS011;75122;41.650;25.368;2024-02-15T10:39:15;3.95;;;2.97;;
84864;SDS011;75122;41.650;25.368;2024-02-15T10:41:49;3.53;;;2.45;;
84864;SDS011;75122;41.650;25.368;2024-02-15T10:44:17;3.58;;;2.65;;
84864;SDS011;75122;41.650;25.368;2024-02-15T10:46:53;3.33;;;2.20;;
84864;SDS011;75122;41.650;25.368;2024-02-15T10:49:22;3.53;;;2.65;;
84864;SDS011;75122;41.650;25.368;2024-02-15T10:51:55;4.40;;;2.67;;
84864;SDS011;75122;41.650;25.368;2024-02-15T10:54:38;4.28;;;2.58;;
84864;SDS011;75122;41.650;25.368;2024-02-15T10:57:10;6.57;;;2.00;;
84864;SDS011;75122;41.650;25.368;2024-02-15T10:59:43;7.18;;;2.78;;
84864;SDS011;75122;41.650;25.368;2024-02-15T11:02:31;6.57;;;2.50;;
84864;SDS011;75122;41.650;25.368;2024-02-15T11:05:05;5.68;;;2.90;;
84864;SDS011;75122;41.650;25.368;2024-02-15T11:07:35;4.25;;;2.78;;
84864;SDS011;75122;41.650;25.368;2024-02-15T11:10:02;4.00;;;2.60;;
84864;SDS011;75122;41.650;25.368;2024-02-15T11:12:33;4.25;;;2.95;;
84864;SDS011;75122;41.650;25.368;2024-02-15T11:14:59;5.22;;;2.63;;
84864;SDS011;75122;41.650;25.368;2024-02-15T11:20:08;4.70;;;2.83;;
84864;SDS011;75122;41.650;25.368;2024-02-15T11:22:35;4.35;;;2.90;;
84864;SDS011;75122;41.650;25.368;2024-02-15T11:25:02;5.13;;;2.90;;
84864;SDS011;75122;41.650;25.368;2024-02-15T11:27:36;5.63;;;3.92;;
84864;SDS011;75122;41.650;25.368;2024-02-15T11:30:03;4.90;;;3.20;;
84864;SDS011;75122;41.650;25.368;2024-02-15T11:32:52;5.45;;;3.25;;
84864;SDS011;75122;41.650;25.368;2024-02-15T11:40:23;6.97;;;3.90;;
84864;SDS011;75122;41.650;25.368;2024-02-15T11:43:00;5.20;;;3.28;;
84864;SDS011;75122;41.650;25.368;2024-02-15T11:45:26;7.30;;;3.50;;
84864;SDS011;75122;41.650;25.368;2024-02-15T11:47:58;5.72;;;2.90;;
84864;SDS011;75122;41.650;25.368;2024-02-15T11:50:23;4.20;;;2.58;;
84864;SDS011;75122;41.650;25.368;2024-02-15T11:52:50;5.85;;;3.15;;
84864;SDS011;75122;41.650;25.368;2024-02-15T11:55:20;4.95;;;3.28;;
84864;SDS011;75122;41.650;25.368;2024-02-15T11:57:59;13.52;;;4.55;;
84864;SDS011;75122;41.650;25.368;2024-02-15T12:00:30;6.72;;;4.00;;
84864;SDS011;75122;41.650;25.368;2024-02-15T12:03:15;4.47;;;3.38;;
84864;SDS011;75122;41.650;25.368;2024-02-15T12:08:44;5.93;;;3.80;;
84864;SDS011;75122;41.650;25.368;2024-02-15T12:11:31;11.45;;;3.40;;
84864;SDS011;75122;41.650;25.368;2024-02-15T12:14:16;5.72;;;2.83;;
84864;SDS011;75122;41.650;25.368;2024-02-15T12:17:07;5.97;;;3.75;;
84864;SDS011;75122;41.650;25.368;2024-02-15T12:19:53;6.72;;;4.55;;
84864;SDS011;75122;41.650;25.368;2024-02-15T12:22:21;7.95;;;4.95;;
84864;SDS011;75122;41.650;25.368;2024-02-15T12:25:03;9.07;;;4.07;;
84864;SDS011;75122;41.650;25.368;2024-02-15T12:27:45;9.50;;;4.82;;
84864;SDS011;75122;41.650;25.368;2024-02-15T12:30:18;8.27;;;4.75;;
84864;SDS011;75122;41.650;25.368;2024-02-15T12:32:46;11.60;;;5.22;;
84864;SDS011;75122;41.650;25.368;2024-02-15T12:35:21;7.65;;;4.85;;
84864;SDS011;75122;41.650;25.368;2024-02-15T12:38:09;9.60;;;5.07;;
84864;SDS011;75122;41.650;25.368;2024-02-15T12:40:38;10.95;;;4.85;;
84864;SDS011;75122;41.650;25.368;2024-02-15T12:43:06;13.57;;;5.32;;
84864;SDS011;75122;41.650;25.368;2024-02-15T12:45:37;7.00;;;4.80;;
84864;SDS011;75122;41.650;25.368;2024-02-15T12:48:05;12.43;;;6.18;;
84864;SDS011;75122;41.650;25.368;2024-02-15T12:50:31;10.88;;;4.85;;
84864;SDS011;75122;41.650;25.368;2024-02-15T12:52:57;7.53;;;4.85;;
84864;SDS011;75122;41.650;25.368;2024-02-15T12:55:28;7.90;;;5.20;;
84864;SDS011;75122;41.650;25.368;2024-02-15T12:58:05;10.45;;;4.95;;
84864;SDS011;75122;41.650;25.368;2024-02-15T13:00:35;7.38;;;4.63;;
84864;SDS011;75122;41.650;25.368;2024-02-15T13:03:04;8.75;;;5.05;;
84864;SDS011;75122;41.650;25.368;2024-02-15T13:05:33;9.35;;;5.15;;
84864;SDS011;75122;41.650;25.368;2024-02-15T13:07:58;8.55;;;5.38;;
84864;SDS011;75122;41.650;25.368;2024-02-15T13:10:27;10.63;;;4.65;;
84864;SDS011;75122;41.650;25.368;2024-02-15T13:12:53;10.63;;;5.40;;
84864;SDS011;75122;41.650;25.368;2024-02-15T13:15:20;8.10;;;4.38;;
84864;SDS011;75122;41.650;25.368;2024-02-15T13:17:47;9.25;;;5.22;;
84864;SDS011;75122;41.650;25.368;2024-02-15T13:20:16;9.20;;;5.32;;
84864;SDS011;75122;41.650;25.368;2024-02-15T13:22:45;8.88;;;5.18;;
84864;SDS011;75122;41.650;25.368;2024-02-15T13:25:13;8.15;;;4.85;;
84864;SDS011;75122;41.650;25.368;2024-02-15T13:27:41;14.15;;;6.68;;
84864;SDS011;75122;41.650;25.368;2024-02-15T13:30:08;12.10;;;6.53;;
84864;SDS011;75122;41.650;25.368;2024-02-15T13:32:37;16.65;;;8.25;;
84864;SDS011;75122;41.650;25.368;2024-02-15T13:35:05;25.42;;;12.48;;
84864;SDS011;75122;41.650;25.368;2024-02-15T13:37:39;21.73;;;9.77;;
84864;SDS011;75122;41.650;25.368;2024-02-15T13:40:09;16.17;;;8.23;;
84864;SDS011;75122;41.650;25.368;2024-02-15T13:42:40;9.75;;;5.38;;
84864;SDS011;75122;41.650;25.368;2024-02-15T13:45:18;10.82;;;5.45;;
84864;SDS011;75122;41.650;25.368;2024-02-15T13:47:48;10.38;;;5.60;;
84864;SDS011;75122;41.650;25.368;2024-02-15T13:50:14;16.17;;;6.72;;
84864;SDS011;75122;41.650;25.368;2024-02-15T13:52:43;37.45;;;16.05;;
84864;SDS011;75122;41.650;25.368;2024-02-15T13:55:13;9.05;;;5.40;;
84864;SDS011;75122;41.650;25.368;2024-02-15T13:57:40;9.48;;;4.55;;
84864;SDS011;75122;41.650;25.368;2024-02-15T14:00:10;10.82;;;5.85;;
84864;SDS011;75122;41.650;25.368;2024-02-15T14:02:46;7.78;;;4.50;;
84864;SDS011;75122;41.650;25.368;2024-02-15T14:05:13;6.40;;;4.75;;
84864;SDS011;75122;41.650;25.368;2024-02-15T14:07:38;6.03;;;3.58;;
84864;SDS011;75122;41.650;25.368;2024-02-15T14:10:04;6.80;;;4.15;;
84864;SDS011;75122;41.650;25.368;2024-02-15T14:12:31;8.02;;;4.93;;
84864;SDS011;75122;41.650;25.368;2024-02-15T14:14:56;6.57;;;4.57;;
84864;SDS011;75122;41.650;25.368;2024-02-15T14:17:22;8.68;;;4.63;;
84864;SDS011;75122;41.650;25.368;2024-02-15T14:19:47;7.30;;;4.40;;
84864;SDS011;75122;41.650;25.368;2024-02-15T14:22:13;9.88;;;4.03;;
84864;SDS011;75122;41.650;25.368;2024-02-15T14:24:41;10.82;;;4.78;;
84864;SDS011;75122;41.650;25.368;2024-02-15T14:27:08;8.65;;;4.38;;
84864;SDS011;75122;41.650;25.368;2024-02-15T14:29:34;6.32;;;3.78;;
84864;SDS011;75122;41.650;25.368;2024-02-15T14:32:02;5.90;;;4.07;;
84864;SDS011;75122;41.650;25.368;2024-02-15T14:34:48;5.40;;;3.00;;
84864;SDS011;75122;41.650;25.368;2024-02-15T14:37:13;7.68;;;3.75;;
84864;SDS011;75122;41.650;25.368;2024-02-15T14:39:39;6.65;;;3.65;;
84864;SDS011;75122;41.650;25.368;2024-02-15T14:42:04;6.32;;;3.90;;
84864;SDS011;75122;41.650;25.368;2024-02-15T14:44:31;4.60;;;3.17;;
84864;SDS011;75122;41.650;25.368;2024-02-15T14:46:56;3.90;;;2.92;;
84864;SDS011;75122;41.650;25.368;2024-02-15T14:49:22;5.43;;;3.70;;
84864;SDS011;75122;41.650;25.368;2024-02-15T14:51:47;4.93;;;3.53;;